Time,TemperatureF,DewpointF,PressureIn,WindDirection,WindDirectionDegrees,WindSpeedMPH,WindSpeedGustMPH,Humidity,HourlyPrecipIn,Conditions,Clouds,dailyrainin,SoftwareType,DateUTC
2014-01-14 00:00:00,36.6,26.3,30.34,NW,315,2.0,4.0,66,0.00,,---,0.00,VWS V14.01,2014-01-14 06:00:00,
2014-01-14 00:10:00,36.9,26.2,30.34,NW,315,3.0,4.0,65,0.00,,---,0.00,VWS V14.01,2014-01-14 06:10:00,
2014-01-14 00:20:00,37.0,26.0,30.33,NW,315,2.0,4.0,64,0.00,,---,0.00,VWS V14.01,2014-01-14 06:20:00,
2014-01-14 00:30:00,37.2,26.2,30.32,NW,315,2.0,4.0,64,0.00,,---,0.00,VWS V14.01,2014-01-14 06:30:00,
2014-01-14 00:40:00,37.0,26.0,30.32,NW,315,2.0,4.0,64,0.00,,---,0.00,VWS V14.01,2014-01-14 06:40:00,
2014-01-14 00:50:00,37.0,25.6,30.32,NW,315,1.0,3.0,63,0.00,,---,0.00,VWS V14.01,2014-01-14 06:50:00,
2014-01-14 01:00:00,36.8,25.4,30.31,NW,315,1.0,3.0,63,0.00,,---,0.00,VWS V14.01,2014-01-14 07:00:00,
2014-01-14 01:10:00,36.6,25.2,30.31,NW,315,2.0,3.0,63,0.00,,---,0.00,VWS V14.01,2014-01-14 07:10:00,
2014-01-14 01:20:00,36.2,24.8,30.30,NW,315,2.0,3.0,63,0.00,,---,0.00,VWS V14.01,2014-01-14 07:20:00,
2014-01-14 01:30:00,36.0,24.6,30.31,NW,315,2.0,4.0,63,0.00,,---,0.00,VWS V14.01,2014-01-14 07:30:00,
2014-01-14 01:40:00,35.9,24.5,30.31,NW,315,1.0,3.0,63,0.00,,---,0.00,VWS V14.01,2014-01-14 07:40:00,
2014-01-14 01:50:00,35.6,24.3,30.31,NW,315,2.0,3.0,63,0.00,,---,0.00,VWS V14.01,2014-01-14 07:50:00,
2014-01-14 02:00:00,35.5,24.2,30.31,NW,315,1.0,2.0,63,0.00,,---,0.00,VWS V14.01,2014-01-14 08:00:00,
2014-01-14 02:10:00,34.7,23.0,30.31,NW,315,1.0,2.0,62,0.00,,---,0.00,VWS V14.01,2014-01-14 08:10:00,
2014-01-14 02:20:00,34.1,22.5,30.31,NW,315,1.0,3.0,62,0.00,,---,0.00,VWS V14.01,2014-01-14 08:20:00,
2014-01-14 02:30:00,33.7,22.8,30.31,NW,315,1.0,3.0,64,0.00,,---,0.00,VWS V14.01,2014-01-14 08:30:00,
2014-01-14 02:40:00,33.4,22.9,30.31,NW,315,2.0,3.0,65,0.00,,---,0.00,VWS V14.01,2014-01-14 08:40:00,
2014-01-14 02:50:00,33.1,22.6,30.31,NW,315,2.0,4.0,65,0.00,,---,0.00,VWS V14.01,2014-01-14 08:50:00,
2014-01-14 03:00:00,32.9,22.4,30.30,NW,315,2.0,4.0,65,0.00,,---,0.00,VWS V14.01,2014-01-14 09:00:00,
2014-01-14 03:10:00,33.2,23.1,30.30,NW,315,2.0,4.0,66,0.00,,---,0.00,VWS V14.01,2014-01-14 09:10:00,
2014-01-14 03:20:00,33.5,23.0,30.30,NW,315,3.0,5.0,65,0.00,,---,0.00,VWS V14.01,2014-01-14 09:20:00,
2014-01-14 03:30:00,34.4,23.5,30.29,NW,315,2.0,5.0,64,0.00,,---,0.00,VWS V14.01,2014-01-14 09:30:00,
2014-01-14 03:40:00,35.5,23.4,30.29,NW,315,3.0,4.0,61,0.00,,---,0.00,VWS V14.01,2014-01-14 09:40:00,
2014-01-14 03:50:00,36.2,22.9,30.29,NW,315,2.0,4.0,58,0.00,,---,0.00,VWS V14.01,2014-01-14 09:50:00,
2014-01-14 04:00:00,36.6,22.4,30.29,NW,315,2.0,5.0,56,0.00,,---,0.00,VWS V14.01,2014-01-14 10:00:00,
2014-01-14 04:10:00,37.0,21.9,30.29,NW,315,2.0,5.0,54,0.00,,---,0.00,VWS V14.01,2014-01-14 10:10:00,
2014-01-14 04:20:00,37.5,21.5,30.29,WNW,292,3.0,6.0,52,0.00,,---,0.00,VWS V14.01,2014-01-14 10:20:00,
2014-01-14 04:30:00,37.8,20.8,30.29,WNW,292,3.0,5.0,50,0.00,,---,0.00,VWS V14.01,2014-01-14 10:30:00,
2014-01-14 04:40:00,37.9,21.4,30.29,WNW,292,1.0,4.0,51,0.00,,---,0.00,VWS V14.01,2014-01-14 10:40:00,
2014-01-14 04:50:00,37.9,21.4,30.29,WNW,292,1.0,2.0,51,0.00,,---,0.00,VWS V14.01,2014-01-14 10:50:00,
2014-01-14 05:00:00,37.5,22.4,30.29,WNW,292,0.0,3.0,54,0.00,,---,0.00,VWS V14.01,2014-01-14 11:00:00,
2014-01-14 05:10:00,37.0,21.5,30.29,WNW,292,2.0,4.0,53,0.00,,---,0.00,VWS V14.01,2014-01-14 11:10:00,
2014-01-14 05:20:00,36.8,20.8,30.29,WNW,292,2.0,5.0,52,0.00,,---,0.00,VWS V14.01,2014-01-14 11:20:00,
2014-01-14 05:30:00,37.2,20.8,30.29,WNW,292,2.0,5.0,51,0.00,,---,0.00,VWS V14.01,2014-01-14 11:30:00,
2014-01-14 05:40:00,37.8,20.4,30.29,WNW,292,2.0,4.0,49,0.00,,---,0.00,VWS V14.01,2014-01-14 11:40:00,
2014-01-14 05:50:00,38.0,20.5,30.28,WNW,292,1.0,4.0,49,0.00,,---,0.00,VWS V14.01,2014-01-14 11:50:00,
2014-01-14 06:00:00,38.5,20.5,30.29,WNW,292,2.0,4.0,48,0.00,,---,0.00,VWS V14.01,2014-01-14 12:00:00,
2014-01-14 06:10:00,38.8,20.3,30.29,WNW,292,2.0,5.0,47,0.00,,---,0.00,VWS V14.01,2014-01-14 12:10:00,
2014-01-14 06:20:00,38.9,20.4,30.30,WNW,292,2.0,4.0,47,0.00,,---,0.00,VWS V14.01,2014-01-14 12:20:00,
2014-01-14 06:30:00,39.1,20.1,30.31,WNW,292,2.0,4.0,46,0.00,,---,0.00,VWS V14.01,2014-01-14 12:30:00,
2014-01-14 06:40:00,39.2,20.2,30.31,WNW,292,3.0,5.0,46,0.00,,---,0.00,VWS V14.01,2014-01-14 12:40:00,
2014-01-14 06:50:00,39.3,19.8,30.31,WNW,292,2.0,5.0,45,0.00,,---,0.00,VWS V14.01,2014-01-14 12:50:00,
2014-01-14 07:00:00,39.5,19.4,30.31,WNW,292,3.0,6.0,44,0.00,,---,0.00,VWS V14.01,2014-01-14 13:00:00,
2014-01-14 07:10:00,39.8,19.7,30.31,WNW,292,3.0,5.0,44,0.00,,---,0.00,VWS V14.01,2014-01-14 13:10:00,
2014-01-14 07:20:00,39.9,20.3,30.32,West,270,1.0,4.0,45,0.00,,---,0.00,VWS V14.01,2014-01-14 13:20:00,
2014-01-14 07:30:00,40.1,20.0,30.32,West,270,1.0,4.0,44,0.00,,---,0.00,VWS V14.01,2014-01-14 13:30:00,
2014-01-14 07:40:00,40.3,20.1,30.32,West,270,2.0,5.0,44,0.00,,---,0.00,VWS V14.01,2014-01-14 13:40:00,
2014-01-14 07:50:00,41.2,19.9,30.33,West,270,4.0,11.0,42,0.00,,---,0.00,VWS V14.01,2014-01-14 13:50:00,
2014-01-14 08:00:00,42.3,19.7,30.34,WNW,292,4.0,9.0,40,0.00,,---,0.00,VWS V14.01,2014-01-14 14:00:00,
2014-01-14 08:10:00,44.3,19.0,30.41,NW,310,6.0,13.0,36,0.00,,---,0.00,VWS V14.01,2014-01-14 14:10:00,
2014-01-14 08:19:00,42.3,19.7,30.34,WNW,292,4.0,9.0,40,0.00,,---,0.00,VWS V14.01,2014-01-14 14:19:00,
2014-01-14 08:20:00,44.1,18.9,30.36,WNW,298,9.0,9.0,36,0.00,,---,0.00,VWS V14.01,2014-01-14 14:20:00,
2014-01-14 08:24:00,44.2,18.3,30.36,WNW,300,5.0,14.0,35,0.00,,---,0.00,VWS V14.01,2014-01-14 14:24:00,
2014-01-14 08:29:00,44.2,19.0,30.38,WNW,290,4.0,14.0,36,0.00,,---,0.00,VWS V14.01,2014-01-14 14:29:00,
2014-01-14 08:30:00,44.2,19.0,30.38,WNW,296,4.0,14.0,36,0.00,,---,0.00,VWS V14.01,2014-01-14 14:30:00,
2014-01-14 08:34:00,44.2,19.0,30.38,NW,307,12.0,13.0,36,0.00,,---,0.00,VWS V14.01,2014-01-14 14:34:00,
2014-01-14 08:39:00,44.2,18.3,30.38,NW,311,11.0,14.0,35,0.00,,---,0.00,VWS V14.01,2014-01-14 14:39:00,
2014-01-14 08:40:00,44.2,18.3,30.38,WNW,302,7.0,14.0,35,0.00,,---,0.00,VWS V14.01,2014-01-14 14:40:00,
2014-01-14 08:44:00,44.2,18.3,30.39,NW,307,6.0,12.0,35,0.00,,---,0.00,VWS V14.01,2014-01-14 14:44:00,
2014-01-14 08:49:00,44.2,19.0,30.39,NNW,331,6.0,12.0,36,0.00,,---,0.00,VWS V14.01,2014-01-14 14:49:00,
2014-01-14 08:50:00,44.2,19.0,30.39,WNW,300,5.0,12.0,36,0.00,,---,0.00,VWS V14.01,2014-01-14 14:50:00,
2014-01-14 08:54:00,44.2,19.0,30.39,NW,311,5.0,10.0,36,0.00,,---,0.00,VWS V14.01,2014-01-14 14:54:00,
2014-01-14 08:59:00,44.3,19.0,30.41,NW,307,12.0,13.0,36,0.00,,---,0.00,VWS V14.01,2014-01-14 14:59:00,
2014-01-14 09:00:00,44.3,19.0,30.41,WNW,296,5.0,13.0,36,0.00,,---,0.00,VWS V14.01,2014-01-14 15:00:00,
2014-01-14 09:04:00,44.3,19.0,30.41,WNW,293,4.0,13.0,36,0.00,,---,0.00,VWS V14.01,2014-01-14 15:04:00,
2014-01-14 09:09:00,44.3,19.0,30.41,NW,306,6.0,13.0,36,0.00,,---,0.00,VWS V14.01,2014-01-14 15:09:00,
2014-01-14 09:10:00,44.3,19.0,30.41,NW,310,6.0,13.0,36,0.00,,---,0.00,VWS V14.01,2014-01-14 15:10:00,
2014-01-14 09:14:00,44.5,19.9,30.41,NW,309,5.0,12.0,37,0.00,,---,0.00,VWS V14.01,2014-01-14 15:14:00,
2014-01-14 09:19:00,44.6,20.0,30.41,WNW,298,9.0,12.0,37,0.00,,---,0.00,VWS V14.01,2014-01-14 15:19:00,
2014-01-14 09:20:00,44.6,20.0,30.41,WNW,284,3.0,12.0,37,0.00,,---,0.00,VWS V14.01,2014-01-14 15:20:00,
2014-01-14 09:24:00,44.6,20.6,30.41,NW,305,9.0,13.0,38,0.00,,---,0.00,VWS V14.01,2014-01-14 15:24:00,
2014-01-14 09:29:00,44.8,21.4,30.42,NW,320,3.0,13.0,39,0.00,,---,0.00,VWS V14.01,2014-01-14 15:29:00,
2014-01-14 09:30:00,44.8,21.4,30.42,NNW,333,3.0,13.0,39,0.00,,---,0.00,VWS V14.01,2014-01-14 15:30:00,
2014-01-14 09:34:00,44.9,21.5,30.42,NW,324,3.0,5.0,39,0.00,,---,0.00,VWS V14.01,2014-01-14 15:34:00,
2014-01-14 09:39:00,44.9,21.5,30.42,North,355,4.0,9.0,39,0.00,,---,0.00,VWS V14.01,2014-01-14 15:39:00,
2014-01-14 09:40:00,44.9,22.1,30.42,North,355,3.0,9.0,40,0.00,,---,0.00,VWS V14.01,2014-01-14 15:40:00,
2014-01-14 09:44:00,45.1,22.2,30.42,NNW,333,3.0,7.0,40,0.00,,---,0.00,VWS V14.01,2014-01-14 15:44:00,
2014-01-14 09:49:00,45.1,22.2,30.42,North,5,7.0,11.0,40,0.00,,---,0.00,VWS V14.01,2014-01-14 15:49:00,
2014-01-14 09:50:00,45.2,22.9,30.42,NNW,331,4.0,11.0,41,0.00,,---,0.00,VWS V14.01,2014-01-14 15:50:00,
2014-01-14 09:54:00,45.2,22.9,30.42,NW,326,6.0,10.0,41,0.00,,---,0.00,VWS V14.01,2014-01-14 15:54:00,
2014-01-14 09:59:00,45.7,23.9,30.43,North,5,3.0,10.0,42,0.00,,---,0.00,VWS V14.01,2014-01-14 15:59:00,
2014-01-14 10:00:00,45.7,23.9,30.43,NNW,338,9.0,10.0,42,0.00,,---,0.00,VWS V14.01,2014-01-14 16:00:00,
2014-01-14 10:04:00,46.1,24.3,30.43,North,355,7.0,9.0,42,0.00,,---,0.00,VWS V14.01,2014-01-14 16:04:00,
2014-01-14 10:09:00,46.2,25.5,30.43,North,355,6.0,11.0,44,0.00,,---,0.00,VWS V14.01,2014-01-14 16:09:00,
2014-01-14 10:10:00,46.2,25.5,30.43,NNW,342,3.0,11.0,44,0.00,,---,0.00,VWS V14.01,2014-01-14 16:10:00,
2014-01-14 10:14:00,46.5,26.3,30.44,North,350,7.0,9.0,45,0.00,,---,0.00,VWS V14.01,2014-01-14 16:14:00,
2014-01-14 10:19:00,46.7,27.0,30.44,North,360,10.0,17.0,46,0.00,,---,0.00,VWS V14.01,2014-01-14 16:19:00,
2014-01-14 10:20:00,46.8,27.6,30.44,North,10,4.0,17.0,47,0.00,,---,0.00,VWS V14.01,2014-01-14 16:20:00,
2014-01-14 10:24:00,46.8,28.2,30.44,NNW,335,7.0,12.0,48,0.00,,---,0.00,VWS V14.01,2014-01-14 16:24:00,
2014-01-14 10:29:00,46.8,28.7,30.45,NNE,25,4.0,12.0,49,0.00,,---,0.00,VWS V14.01,2014-01-14 16:29:00,
2014-01-14 10:30:00,46.8,29.2,30.45,NNW,339,6.0,12.0,50,0.00,,---,0.00,VWS V14.01,2014-01-14 16:30:00,
2014-01-14 10:34:00,46.8,29.6,30.45,NNE,14,10.0,12.0,51,0.00,,---,0.00,VWS V14.01,2014-01-14 16:34:00,
2014-01-14 10:39:00,46.8,30.6,30.45,NNE,26,9.0,12.0,53,0.00,,---,0.00,VWS V14.01,2014-01-14 16:39:00,
2014-01-14 10:40:00,46.8,30.6,30.45,North,360,7.0,12.0,53,0.00,,---,0.00,VWS V14.01,2014-01-14 16:40:00,
2014-01-14 10:44:00,46.5,31.2,30.46,NNW,346,6.0,14.0,55,0.00,,---,0.00,VWS V14.01,2014-01-14 16:44:00,
2014-01-14 10:49:00,46.1,31.7,30.46,North,355,5.0,14.0,57,0.00,,---,0.00,VWS V14.01,2014-01-14 16:49:00,
2014-01-14 10:50:00,46.1,31.7,30.46,NNW,327,7.0,14.0,57,0.00,,---,0.00,VWS V14.01,2014-01-14 16:50:00,
2014-01-14 10:54:00,45.7,31.8,30.46,North,355,5.0,12.0,58,0.00,,---,0.00,VWS V14.01,2014-01-14 16:54:00,
2014-01-14 10:59:00,45.4,31.5,30.47,North,360,7.0,12.0,58,0.00,,---,0.00,VWS V14.01,2014-01-14 16:59:00,
2014-01-14 11:00:00,45.4,31.9,30.47,NNW,347,5.0,12.0,59,0.00,,---,0.00,VWS V14.01,2014-01-14 17:00:00,
2014-01-14 11:04:00,45.2,31.7,30.47,North,351,5.0,11.0,59,0.00,,---,0.00,VWS V14.01,2014-01-14 17:04:00,
2014-01-14 11:09:00,45.1,32.1,30.47,North,360,8.0,11.0,60,0.00,,---,0.00,VWS V14.01,2014-01-14 17:09:00,
2014-01-14 11:10:00,45.1,32.1,30.47,North,351,10.0,11.0,60,0.00,,---,0.00,VWS V14.01,2014-01-14 17:10:00,
2014-01-14 11:14:00,44.9,32.3,30.47,NNW,332,4.0,10.0,61,0.00,,---,0.00,VWS V14.01,2014-01-14 17:14:00,
2014-01-14 11:19:00,44.8,32.2,30.47,North,360,3.0,11.0,61,0.00,,---,0.00,VWS V14.01,2014-01-14 17:19:00,
2014-01-14 11:20:00,44.8,32.2,30.47,NNW,347,7.0,11.0,61,0.00,,---,0.00,VWS V14.01,2014-01-14 17:20:00,
2014-01-14 11:24:00,44.8,32.6,30.47,North,360,7.0,11.0,62,0.00,,---,0.00,VWS V14.01,2014-01-14 17:24:00,
2014-01-14 11:29:00,44.6,32.8,30.47,NW,326,7.0,14.0,63,0.00,,---,0.00,VWS V14.01,2014-01-14 17:29:00,
2014-01-14 11:30:00,44.6,32.8,30.47,North,360,4.0,14.0,63,0.00,,---,0.00,VWS V14.01,2014-01-14 17:30:00,
2014-01-14 11:34:00,44.5,33.1,30.47,NNE,12,5.0,13.0,64,0.00,,---,0.00,VWS V14.01,2014-01-14 17:34:00,
2014-01-14 11:39:00,44.3,32.9,30.47,NNW,340,3.0,13.0,64,0.00,,---,0.00,VWS V14.01,2014-01-14 17:39:00,
2014-01-14 11:40:00,44.3,32.9,30.47,NNW,338,5.0,13.0,64,0.00,,---,0.00,VWS V14.01,2014-01-14 17:40:00,
2014-01-14 11:44:00,44.3,32.9,30.47,NNW,348,6.0,10.0,64,0.00,,---,0.00,VWS V14.01,2014-01-14 17:44:00,
2014-01-14 11:49:00,44.3,33.3,30.47,NW,324,5.0,10.0,65,0.00,,---,0.00,VWS V14.01,2014-01-14 17:49:00,
2014-01-14 11:50:00,44.3,33.3,30.47,NW,316,8.0,11.0,65,0.00,,---,0.00,VWS V14.01,2014-01-14 17:50:00,
2014-01-14 11:54:00,44.3,33.3,30.47,NW,323,5.0,10.0,65,0.00,,---,0.00,VWS V14.01,2014-01-14 17:54:00,
2014-01-14 11:59:00,44.5,33.5,30.47,NNW,328,6.0,12.0,65,0.00,,---,0.00,VWS V14.01,2014-01-14 17:59:00,
2014-01-14 12:00:00,44.5,33.5,30.47,NNW,336,3.0,12.0,65,0.00,,---,0.00,VWS V14.01,2014-01-14 18:00:00,
2014-01-14 12:04:00,44.5,33.1,30.47,North,350,5.0,8.0,64,0.00,,---,0.00,VWS V14.01,2014-01-14 18:04:00,
2014-01-14 12:09:00,44.6,33.2,30.47,NW,323,3.0,9.0,64,0.00,,---,0.00,VWS V14.01,2014-01-14 18:09:00,
2014-01-14 12:10:00,44.6,33.2,30.47,NW,321,4.0,9.0,64,0.00,,---,0.00,VWS V14.01,2014-01-14 18:10:00,
2014-01-14 12:14:00,44.8,33.4,30.45,North,5,6.0,7.0,64,0.00,,---,0.00,VWS V14.01,2014-01-14 18:14:00,
2014-01-14 12:19:00,44.9,33.1,30.45,NNW,336,6.0,10.0,63,0.00,,---,0.00,VWS V14.01,2014-01-14 18:19:00,
2014-01-14 12:20:00,45.1,33.3,30.45,NNW,346,5.0,10.0,63,0.00,,---,0.00,VWS V14.01,2014-01-14 18:20:00,
2014-01-14 12:24:00,45.4,33.6,30.45,North,360,5.0,12.0,63,0.00,,---,0.00,VWS V14.01,2014-01-14 18:24:00,
2014-01-14 12:29:00,45.7,33.0,30.45,North,5,4.0,12.0,61,0.00,,---,0.00,VWS V14.01,2014-01-14 18:29:00,
2014-01-14 12:30:00,45.8,33.5,30.45,North,355,5.0,12.0,62,0.00,,---,0.00,VWS V14.01,2014-01-14 18:30:00,
2014-01-14 12:34:00,46.1,33.4,30.45,North,355,9.0,13.0,61,0.00,,---,0.00,VWS V14.01,2014-01-14 18:34:00,
2014-01-14 12:39:00,46.1,33.0,30.45,North,360,6.0,13.0,60,0.00,,---,0.00,VWS V14.01,2014-01-14 18:39:00,
2014-01-14 12:40:00,46.2,33.1,30.45,North,5,4.0,13.0,60,0.00,,---,0.00,VWS V14.01,2014-01-14 18:40:00,
2014-01-14 12:44:00,46.4,32.9,30.45,North,360,9.0,13.0,59,0.00,,---,0.00,VWS V14.01,2014-01-14 18:44:00,
2014-01-14 12:49:00,46.5,33.0,30.45,NNW,336,6.0,13.0,59,0.00,,---,0.00,VWS V14.01,2014-01-14 18:49:00,
2014-01-14 12:50:00,46.5,33.0,30.45,NNW,344,7.0,13.0,59,0.00,,---,0.00,VWS V14.01,2014-01-14 18:50:00,
2014-01-14 12:54:00,46.5,32.5,30.45,North,355,7.0,11.0,58,0.00,,---,0.00,VWS V14.01,2014-01-14 18:54:00,
2014-01-14 12:59:00,46.2,32.2,30.45,North,355,8.0,17.0,58,0.00,,---,0.00,VWS V14.01,2014-01-14 18:59:00,
2014-01-14 13:00:00,46.2,32.2,30.45,North,355,6.0,17.0,58,0.00,,---,0.00,VWS V14.01,2014-01-14 19:00:00,
2014-01-14 13:04:00,46.2,32.2,30.45,North,360,5.0,14.0,58,0.00,,---,0.00,VWS V14.01,2014-01-14 19:04:00,
2014-01-14 13:09:00,46.2,32.7,30.45,North,349,6.0,16.0,59,0.00,,---,0.00,VWS V14.01,2014-01-14 19:09:00,
2014-01-14 13:10:00,46.4,32.9,30.45,NNW,340,9.0,16.0,59,0.00,,---,0.00,VWS V14.01,2014-01-14 19:10:00,
2014-01-14 13:14:00,46.5,32.5,30.46,NNW,345,9.0,16.0,58,0.00,,---,0.00,VWS V14.01,2014-01-14 19:14:00,
2014-01-14 13:19:00,46.7,32.7,30.46,North,355,9.0,16.0,58,0.00,,---,0.00,VWS V14.01,2014-01-14 19:19:00,
2014-01-14 13:20:00,46.8,32.8,30.46,North,360,11.0,16.0,58,0.00,,---,0.00,VWS V14.01,2014-01-14 19:20:00,
2014-01-14 13:24:00,46.8,32.0,30.46,North,355,17.0,21.0,56,0.00,,---,0.00,VWS V14.01,2014-01-14 19:24:00,
2014-01-14 13:29:00,47.0,32.1,30.47,NNW,336,10.0,21.0,56,0.00,,---,0.00,VWS V14.01,2014-01-14 19:29:00,
2014-01-14 13:30:00,46.8,31.5,30.47,NNW,335,14.0,21.0,55,0.00,,---,0.00,VWS V14.01,2014-01-14 19:30:00,
2014-01-14 13:34:00,46.8,31.5,30.47,NW,319,10.0,18.0,55,0.00,,---,0.00,VWS V14.01,2014-01-14 19:34:00,
2014-01-14 13:39:00,46.8,31.5,30.47,NNE,15,13.0,18.0,55,0.00,,---,0.00,VWS V14.01,2014-01-14 19:39:00,
2014-01-14 13:40:00,46.8,31.5,30.47,ENE,60,10.0,18.0,55,0.00,,---,0.00,VWS V14.01,2014-01-14 19:40:00,
2014-01-14 13:44:00,47.0,31.7,30.48,North,355,8.0,19.0,55,0.00,,---,0.00,VWS V14.01,2014-01-14 19:44:00,
2014-01-14 13:49:00,48.3,32.9,30.48,NW,322,2.0,19.0,55,0.00,,---,0.00,VWS V14.01,2014-01-14 19:49:00,
2014-01-14 13:50:00,48.5,33.1,30.48,North,355,5.0,19.0,55,0.00,,---,0.00,VWS V14.01,2014-01-14 19:50:00,
2014-01-14 13:54:00,48.3,32.0,30.48,NNE,19,10.0,15.0,53,0.00,,---,0.00,VWS V14.01,2014-01-14 19:54:00,
2014-01-14 13:59:00,47.7,31.9,30.48,North,355,9.0,15.0,54,0.00,,---,0.00,VWS V14.01,2014-01-14 19:59:00,
2014-01-14 14:00:00,47.7,31.9,30.48,North,360,7.0,15.0,54,0.00,,---,0.00,VWS V14.01,2014-01-14 20:00:00,
2014-01-14 14:04:00,48.0,32.2,30.48,NNW,335,14.0,19.0,54,0.00,,---,0.00,VWS V14.01,2014-01-14 20:04:00,
2014-01-14 14:09:00,47.7,30.5,30.48,NNW,338,13.0,19.0,51,0.00,,---,0.00,VWS V14.01,2014-01-14 20:09:00,
2014-01-14 14:10:00,47.9,31.1,30.48,NW,325,10.0,19.0,52,0.00,,---,0.00,VWS V14.01,2014-01-14 20:10:00,
2014-01-14 14:14:00,47.9,30.7,30.49,NNW,334,10.0,15.0,51,0.00,,---,0.00,VWS V14.01,2014-01-14 20:14:00,
2014-01-14 14:19:00,47.7,30.5,30.49,North,349,8.0,15.0,51,0.00,,---,0.00,VWS V14.01,2014-01-14 20:19:00,
2014-01-14 14:20:00,47.7,30.5,30.49,North,349,8.0,15.0,51,0.00,,---,0.00,VWS V14.01,2014-01-14 20:20:00,
2014-01-14 14:24:00,48.8,31.5,30.49,North,350,5.0,14.0,51,0.00,,---,0.00,VWS V14.01,2014-01-14 20:24:00,
2014-01-14 14:29:00,49.1,30.3,30.49,North,360,11.0,18.0,48,0.00,,---,0.00,VWS V14.01,2014-01-14 20:29:00,
2014-01-14 14:30:00,49.1,30.3,30.49,North,355,15.0,18.0,48,0.00,,---,0.00,VWS V14.01,2014-01-14 20:30:00,
2014-01-14 14:34:00,48.9,30.6,30.49,North,355,11.0,18.0,49,0.00,,---,0.00,VWS V14.01,2014-01-14 20:34:00,
2014-01-14 14:39:00,48.9,30.6,30.49,North,350,15.0,20.0,49,0.00,,---,0.00,VWS V14.01,2014-01-14 20:39:00,
2014-01-14 14:40:00,48.9,30.6,30.49,NW,315,10.0,20.0,49,0.00,,---,0.00,VWS V14.01,2014-01-14 20:40:00,
2014-01-14 14:44:00,49.4,30.5,30.49,NNW,345,10.0,19.0,48,0.00,,---,0.00,VWS V14.01,2014-01-14 20:44:00,
2014-01-14 14:49:00,50.1,30.1,30.50,North,360,11.0,19.0,46,0.00,,---,0.00,VWS V14.01,2014-01-14 20:49:00,
2014-01-14 14:50:00,49.9,29.4,30.50,NE,44,7.0,19.0,45,0.00,,---,0.00,VWS V14.01,2014-01-14 20:50:00,
2014-01-14 14:54:00,49.5,27.4,30.50,NNE,26,13.0,18.0,42,0.00,,---,0.00,VWS V14.01,2014-01-14 20:54:00,
2014-01-14 14:59:00,48.8,27.3,30.50,NNW,341,12.0,19.0,43,0.00,,---,0.00,VWS V14.01,2014-01-14 20:59:00,
2014-01-14 15:00:00,48.8,27.3,30.51,NNW,347,8.0,19.0,43,0.00,,---,0.00,VWS V14.01,2014-01-14 21:00:00,
2014-01-14 15:04:00,48.6,27.1,30.51,NNW,338,10.0,17.0,43,0.00,,---,0.00,VWS V14.01,2014-01-14 21:04:00,
2014-01-14 15:09:00,48.9,26.2,30.51,North,11,14.0,19.0,41,0.00,,---,0.00,VWS V14.01,2014-01-14 21:09:00,
2014-01-14 15:10:00,48.9,26.8,30.51,North,5,9.0,19.0,42,0.00,,---,0.00,VWS V14.01,2014-01-14 21:10:00,
2014-01-14 15:14:00,49.2,27.7,30.51,NNW,339,12.0,15.0,43,0.00,,---,0.00,VWS V14.01,2014-01-14 21:14:00,
2014-01-14 15:19:00,49.1,27.0,30.50,NNW,346,6.0,16.0,42,0.00,,---,0.00,VWS V14.01,2014-01-14 21:19:00,
2014-01-14 15:20:00,49.1,27.0,30.50,NNW,329,7.0,16.0,42,0.00,,---,0.00,VWS V14.01,2014-01-14 21:20:00,
2014-01-14 15:24:00,49.1,27.0,30.50,North,360,5.0,11.0,42,0.00,,---,0.00,VWS V14.01,2014-01-14 21:24:00,
2014-01-14 15:29:00,48.3,26.3,30.50,NW,325,7.0,15.0,42,0.00,,---,0.00,VWS V14.01,2014-01-14 21:29:00,
2014-01-14 15:30:00,48.2,26.2,30.51,North,5,10.0,16.0,42,0.00,,---,0.00,VWS V14.01,2014-01-14 21:30:00,
2014-01-14 15:34:00,48.0,26.0,30.51,NNW,329,10.0,16.0,42,0.00,,---,0.00,VWS V14.01,2014-01-14 21:34:00,
2014-01-14 15:39:00,47.9,25.9,30.51,NE,35,6.0,16.0,42,0.00,,---,0.00,VWS V14.01,2014-01-14 21:39:00,
2014-01-14 15:40:00,47.9,25.9,30.51,NNW,327,4.0,16.0,42,0.00,,---,0.00,VWS V14.01,2014-01-14 21:40:00,
2014-01-14 15:44:00,47.7,25.8,30.51,NNW,343,5.0,14.0,42,0.00,,---,0.00,VWS V14.01,2014-01-14 21:44:00,
2014-01-14 15:49:00,47.6,25.7,30.52,North,355,10.0,14.0,42,0.00,,---,0.00,VWS V14.01,2014-01-14 21:49:00,
2014-01-14 15:50:00,47.6,25.7,30.52,NW,323,5.0,14.0,42,0.00,,---,0.00,VWS V14.01,2014-01-14 21:50:00,
2014-01-14 15:54:00,47.6,26.2,30.52,North,355,5.0,14.0,43,0.00,,---,0.00,VWS V14.01,2014-01-14 21:54:00,
2014-01-14 15:59:00,47.4,26.0,30.52,NNW,336,6.0,14.0,43,0.00,,---,0.00,VWS V14.01,2014-01-14 21:59:00,
2014-01-14 16:00:00,47.4,26.0,30.53,NNW,342,9.0,14.0,43,0.00,,---,0.00,VWS V14.01,2014-01-14 22:00:00,
2014-01-14 16:04:00,47.3,26.0,30.53,NNW,335,5.0,9.0,43,0.00,,---,0.00,VWS V14.01,2014-01-14 22:04:00,
2014-01-14 16:09:00,47.3,26.0,30.53,North,9,4.0,11.0,43,0.00,,---,0.00,VWS V14.01,2014-01-14 22:09:00,
2014-01-14 16:10:00,47.3,26.0,30.53,North,5,3.0,11.0,43,0.00,,---,0.00,VWS V14.01,2014-01-14 22:10:00,
2014-01-14 16:14:00,47.4,26.0,30.53,NNW,344,5.0,7.0,43,0.00,,---,0.00,VWS V14.01,2014-01-14 22:14:00,
2014-01-14 16:19:00,47.1,24.0,30.53,North,5,9.0,14.0,40,0.00,,---,0.00,VWS V14.01,2014-01-14 22:19:00,
2014-01-14 16:20:00,47.3,23.6,30.53,NNW,340,7.0,14.0,39,0.00,,---,0.00,VWS V14.01,2014-01-14 22:20:00,
2014-01-14 16:24:00,47.4,22.5,30.53,North,355,5.0,12.0,37,0.00,,---,0.00,VWS V14.01,2014-01-14 22:24:00,
2014-01-14 16:29:00,47.4,21.8,30.53,NNE,21,3.0,15.0,36,0.00,,---,0.00,VWS V14.01,2014-01-14 22:29:00,
2014-01-14 16:30:00,47.4,21.8,30.54,NNE,13,7.0,15.0,36,0.00,,---,0.00,VWS V14.01,2014-01-14 22:30:00,
2014-01-14 16:34:00,47.1,20.9,30.54,NNE,29,3.0,12.0,35,0.00,,---,0.00,VWS V14.01,2014-01-14 22:34:00,
2014-01-14 16:39:00,47.0,21.5,30.54,North,355,5.0,12.0,36,0.00,,---,0.00,VWS V14.01,2014-01-14 22:39:00,
2014-01-14 16:40:00,47.0,22.1,30.54,North,355,6.0,14.0,37,0.00,,---,0.00,VWS V14.01,2014-01-14 22:40:00,
2014-01-14 16:44:00,47.0,22.1,30.54,NNW,338,10.0,13.0,37,0.00,,---,0.00,VWS V14.01,2014-01-14 22:44:00,
2014-01-14 16:49:00,46.8,21.9,30.55,North,355,6.0,13.0,37,0.00,,---,0.00,VWS V14.01,2014-01-14 22:49:00,
2014-01-14 16:50:00,46.7,21.8,30.55,North,9,12.0,13.0,37,0.00,,---,0.00,VWS V14.01,2014-01-14 22:50:00,
2014-01-14 16:54:00,46.5,21.6,30.55,NNW,336,3.0,12.0,37,0.00,,---,0.00,VWS V14.01,2014-01-14 22:54:00,
2014-01-14 16:59:00,46.2,21.4,30.55,NNW,329,5.0,16.0,37,0.00,,---,0.00,VWS V14.01,2014-01-14 22:59:00,
2014-01-14 17:00:00,46.2,21.4,30.56,North,355,5.0,16.0,37,0.00,,---,0.00,VWS V14.01,2014-01-14 23:00:00,
2014-01-14 17:04:00,46.0,21.2,30.56,NNW,333,10.0,10.0,37,0.00,,---,0.00,VWS V14.01,2014-01-14 23:04:00,
2014-01-14 17:08:00,45.5,20.1,30.56,North,355,6.0,13.0,36,0.00,,---,0.00,VWS V14.01,2014-01-14 23:08:00,
2014-01-14 17:10:00,45.4,19.4,30.56,North,5,6.0,13.0,35,0.00,,---,0.00,VWS V14.01,2014-01-14 23:10:00,
2014-01-14 17:13:00,44.9,18.9,30.56,NNW,334,6.0,14.0,35,0.00,,---,0.00,VWS V14.01,2014-01-14 23:13:00,
2014-01-14 17:18:00,44.6,18.7,30.57,North,350,12.0,14.0,35,0.00,,---,0.00,VWS V14.01,2014-01-14 23:18:00,
2014-01-14 17:20:00,44.5,17.9,30.57,NW,324,8.0,14.0,34,0.00,,---,0.00,VWS V14.01,2014-01-14 23:20:00,
2014-01-14 17:23:00,44.2,17.6,30.57,North,351,3.0,12.0,34,0.00,,---,0.00,VWS V14.01,2014-01-14 23:23:00,
2014-01-14 17:28:00,43.9,17.4,30.57,NNW,339,5.0,12.0,34,0.00,,---,0.00,VWS V14.01,2014-01-14 23:28:00,
2014-01-14 17:30:00,43.9,18.0,30.58,North,355,5.0,12.0,35,0.00,,---,0.00,VWS V14.01,2014-01-14 23:30:00,
2014-01-14 17:33:00,43.8,17.3,30.58,North,355,5.0,11.0,34,0.00,,---,0.00,VWS V14.01,2014-01-14 23:33:00,
2014-01-14 17:38:00,43.5,17.7,30.58,NNW,340,5.0,14.0,35,0.00,,---,0.00,VWS V14.01,2014-01-14 23:38:00,
2014-01-14 17:40:00,43.3,17.5,30.58,NNW,337,5.0,14.0,35,0.00,,---,0.00,VWS V14.01,2014-01-14 23:40:00,
2014-01-14 17:43:00,43.1,17.3,30.58,NW,323,4.0,7.0,35,0.00,,---,0.00,VWS V14.01,2014-01-14 23:43:00,
2014-01-14 17:48:00,42.9,17.1,30.58,NW,322,4.0,11.0,35,0.00,,---,0.00,VWS V14.01,2014-01-14 23:48:00,
2014-01-14 17:50:00,42.8,18.4,30.58,NNW,327,2.0,11.0,37,0.00,,---,0.00,VWS V14.01,2014-01-14 23:50:00,
2014-01-14 17:53:00,42.5,18.7,30.58,NW,313,9.0,11.0,38,0.00,,---,0.00,VWS V14.01,2014-01-14 23:53:00,
2014-01-14 17:58:00,42.3,19.7,30.58,NNW,340,4.0,12.0,40,0.00,,---,0.00,VWS V14.01,2014-01-14 23:58:00,
2014-01-14 18:00:00,42.2,19.6,30.60,NNW,329,5.0,12.0,40,0.00,,---,0.00,VWS V14.01,2014-01-15 00:00:00,
2014-01-14 18:03:00,42.1,19.5,30.60,NNW,346,1.0,12.0,40,0.00,,---,0.00,VWS V14.01,2014-01-15 00:03:00,
2014-01-14 18:08:00,41.8,19.8,30.60,NNW,338,6.0,12.0,41,0.00,,---,0.00,VWS V14.01,2014-01-15 00:08:00,
2014-01-14 18:10:00,41.8,19.8,30.60,NNW,332,3.0,12.0,41,0.00,,---,0.00,VWS V14.01,2014-01-15 00:10:00,
2014-01-14 18:13:00,41.5,19.6,30.60,NW,323,2.0,5.0,41,0.00,,---,0.00,VWS V14.01,2014-01-15 00:13:00,
2014-01-14 18:18:00,41.2,19.3,30.60,NNW,339,2.0,7.0,41,0.00,,---,0.00,VWS V14.01,2014-01-15 00:18:00,
2014-01-14 18:20:00,41.1,19.2,30.60,NNW,338,6.0,7.0,41,0.00,,---,0.00,VWS V14.01,2014-01-15 00:20:00,
2014-01-14 18:23:00,40.9,17.3,30.60,NNW,338,1.0,7.0,38,0.00,,---,0.00,VWS V14.01,2014-01-15 00:23:00,
2014-01-14 18:28:00,40.6,18.8,30.60,NNW,338,2.0,7.0,41,0.00,,---,0.00,VWS V14.01,2014-01-15 00:28:00,
2014-01-14 18:30:00,40.6,18.8,30.61,NNW,338,2.0,7.0,41,0.00,,---,0.00,VWS V14.01,2014-01-15 00:30:00,
2014-01-14 18:33:00,40.5,18.7,30.61,NW,325,2.0,4.0,41,0.00,,---,0.00,VWS V14.01,2014-01-15 00:33:00,
2014-01-14 18:38:00,40.1,18.3,30.61,NW,323,4.0,4.0,41,0.00,,---,0.00,VWS V14.01,2014-01-15 00:38:00,
2014-01-14 18:40:00,39.9,18.1,30.61,NW,323,3.0,7.0,41,0.00,,---,0.00,VWS V14.01,2014-01-15 00:40:00,
2014-01-14 18:43:00,39.6,17.9,30.61,NW,317,2.0,5.0,41,0.00,,---,0.00,VWS V14.01,2014-01-15 00:43:00,
2014-01-14 18:48:00,39.5,17.8,30.62,NW,319,3.0,5.0,41,0.00,,---,0.00,VWS V14.01,2014-01-15 00:48:00,
2014-01-14 18:50:00,39.3,17.6,30.62,NW,319,2.0,5.0,41,0.00,,---,0.00,VWS V14.01,2014-01-15 00:50:00,
2014-01-14 18:53:00,39.2,17.5,30.62,NNW,340,4.0,6.0,41,0.00,,---,0.00,VWS V14.01,2014-01-15 00:53:00,
2014-01-14 18:58:00,38.9,17.2,30.62,NNW,340,2.0,6.0,41,0.00,,---,0.00,VWS V14.01,2014-01-15 00:58:00,
2014-01-14 19:00:00,38.9,17.2,30.62,NNW,340,3.0,6.0,41,0.00,,---,0.00,VWS V14.01,2014-01-15 01:00:00,
2014-01-14 19:03:00,38.6,17.0,30.62,NNW,340,3.0,3.0,41,0.00,,---,0.00,VWS V14.01,2014-01-15 01:03:00,
2014-01-14 19:08:00,38.3,16.7,30.62,NNW,340,2.0,4.0,41,0.00,,---,0.00,VWS V14.01,2014-01-15 01:08:00,
2014-01-14 19:10:00,38.3,16.7,30.62,NNW,340,2.0,4.0,41,0.00,,---,0.00,VWS V14.01,2014-01-15 01:10:00,
2014-01-14 19:13:00,38.2,16.6,30.62,NNW,340,3.0,4.0,41,0.00,,---,0.00,VWS V14.01,2014-01-15 01:13:00,
2014-01-14 19:18:00,38.0,16.4,30.62,NNW,339,1.0,5.0,41,0.00,,---,0.00,VWS V14.01,2014-01-15 01:18:00,
2014-01-14 19:20:00,37.9,16.3,30.62,NNW,340,2.0,5.0,41,0.00,,---,0.00,VWS V14.01,2014-01-15 01:20:00,
2014-01-14 19:23:00,37.8,16.2,30.62,NNW,340,2.0,4.0,41,0.00,,---,0.00,VWS V14.01,2014-01-15 01:23:00,
2014-01-14 19:28:00,37.6,16.6,30.62,NNW,339,1.0,5.0,42,0.00,,---,0.00,VWS V14.01,2014-01-15 01:28:00,
2014-01-14 19:30:00,37.6,16.6,30.63,NNW,339,0.0,5.0,42,0.00,,---,0.00,VWS V14.01,2014-01-15 01:30:00,
2014-01-14 19:33:00,37.5,16.5,30.63,NNW,339,1.0,3.0,42,0.00,,---,0.00,VWS V14.01,2014-01-15 01:33:00,
2014-01-14 19:38:00,37.2,16.2,30.63,NW,319,4.0,5.0,42,0.00,,---,0.00,VWS V14.01,2014-01-15 01:38:00,
2014-01-14 19:40:00,37.2,16.8,30.63,NW,307,3.0,6.0,43,0.00,,---,0.00,VWS V14.01,2014-01-15 01:40:00,
2014-01-14 19:43:00,37.0,16.6,30.63,NW,307,4.0,4.0,43,0.00,,---,0.00,VWS V14.01,2014-01-15 01:43:00,
2014-01-14 19:48:00,36.9,16.5,30.64,NW,307,0.0,4.0,43,0.00,,---,0.00,VWS V14.01,2014-01-15 01:48:00,
2014-01-14 19:50:00,36.9,16.5,30.64,NW,307,1.0,4.0,43,0.00,,---,0.00,VWS V14.01,2014-01-15 01:50:00,
2014-01-14 19:53:00,36.8,16.4,30.64,NW,307,0.0,3.0,43,0.00,,---,0.00,VWS V14.01,2014-01-15 01:53:00,
2014-01-14 19:58:00,36.5,16.1,30.64,NW,307,3.0,4.0,43,0.00,,---,0.00,VWS V14.01,2014-01-15 01:58:00,
2014-01-14 20:00:00,36.5,16.1,30.64,NW,307,2.0,4.0,43,0.00,,---,0.00,VWS V14.01,2014-01-15 02:00:00,
2014-01-14 20:03:00,36.3,16.5,30.64,NW,307,1.0,3.0,44,0.00,,---,0.00,VWS V14.01,2014-01-15 02:03:00,
2014-01-14 20:08:00,36.0,16.2,30.64,NW,307,1.0,5.0,44,0.00,,---,0.00,VWS V14.01,2014-01-15 02:08:00,
2014-01-14 20:10:00,36.0,16.2,30.64,NW,307,1.0,5.0,44,0.00,,---,0.00,VWS V14.01,2014-01-15 02:10:00,
2014-01-14 20:13:00,35.9,16.1,30.64,NW,307,1.0,3.0,44,0.00,,---,0.00,VWS V14.01,2014-01-15 02:13:00,
2014-01-14 20:18:00,35.6,15.9,30.64,NNW,329,2.0,6.0,44,0.00,,---,0.00,VWS V14.01,2014-01-15 02:18:00,
2014-01-14 20:20:00,35.6,15.9,30.64,NW,326,2.0,9.0,44,0.00,,---,0.00,VWS V14.01,2014-01-15 02:20:00,
2014-01-14 20:23:00,35.6,15.9,30.64,NNW,327,5.0,6.0,44,0.00,,---,0.00,VWS V14.01,2014-01-15 02:23:00,
2014-01-14 20:28:00,35.5,15.8,30.64,NNW,332,3.0,6.0,44,0.00,,---,0.00,VWS V14.01,2014-01-15 02:28:00,
2014-01-14 20:30:00,35.6,15.9,30.65,NNW,332,4.0,6.0,44,0.00,,---,0.00,VWS V14.01,2014-01-15 02:30:00,
2014-01-14 20:33:00,35.6,15.9,30.65,NNW,333,2.0,7.0,44,0.00,,---,0.00,VWS V14.01,2014-01-15 02:33:00,
2014-01-14 20:38:00,35.6,15.3,30.65,North,355,5.0,8.0,43,0.00,,---,0.00,VWS V14.01,2014-01-15 02:38:00,
2014-01-14 20:40:00,35.6,15.3,30.65,NW,325,1.0,8.0,43,0.00,,---,0.00,VWS V14.01,2014-01-15 02:40:00,
2014-01-14 20:43:00,35.6,15.3,30.65,NW,325,1.0,5.0,43,0.00,,---,0.00,VWS V14.01,2014-01-15 02:43:00,
2014-01-14 20:48:00,35.6,15.3,30.65,North,355,3.0,8.0,43,0.00,,---,0.00,VWS V14.01,2014-01-15 02:48:00,
2014-01-14 20:50:00,35.6,14.8,30.65,NNW,334,4.0,10.0,42,0.00,,---,0.00,VWS V14.01,2014-01-15 02:50:00,
2014-01-14 20:53:00,35.8,15.0,30.65,North,360,3.0,7.0,42,0.00,,---,0.00,VWS V14.01,2014-01-15 02:53:00,
2014-01-14 20:58:00,35.6,14.8,30.65,NNW,329,5.0,7.0,42,0.00,,---,0.00,VWS V14.01,2014-01-15 02:58:00,
2014-01-14 21:00:00,35.6,14.8,30.65,NW,318,3.0,7.0,42,0.00,,---,0.00,VWS V14.01,2014-01-15 03:00:00,
2014-01-14 21:03:00,35.6,14.8,30.65,NNW,327,2.0,5.0,42,0.00,,---,0.00,VWS V14.01,2014-01-15 03:03:00,
2014-01-14 21:08:00,35.5,14.7,30.65,NNW,327,0.0,5.0,42,0.00,,---,0.00,VWS V14.01,2014-01-15 03:08:00,
2014-01-14 21:10:00,35.3,14.5,30.65,NNW,327,2.0,5.0,42,0.00,,---,0.00,VWS V14.01,2014-01-15 03:10:00,
2014-01-14 21:13:00,35.2,14.4,30.65,NW,313,4.0,6.0,42,0.00,,---,0.00,VWS V14.01,2014-01-15 03:13:00,
2014-01-14 21:18:00,35.0,14.8,30.65,NW,318,1.0,6.0,43,0.00,,---,0.00,VWS V14.01,2014-01-15 03:18:00,
2014-01-14 21:20:00,35.0,14.8,30.65,NW,318,2.0,6.0,43,0.00,,---,0.00,VWS V14.01,2014-01-15 03:20:00,
2014-01-14 21:23:00,34.9,14.7,30.65,NW,318,2.0,3.0,43,0.00,,---,0.00,VWS V14.01,2014-01-15 03:23:00,
2014-01-14 21:28:00,34.7,14.5,30.65,NW,318,2.0,3.0,43,0.00,,---,0.00,VWS V14.01,2014-01-15 03:28:00,
2014-01-14 21:30:00,34.7,14.5,30.65,NW,318,2.0,3.0,43,0.00,,---,0.00,VWS V14.01,2014-01-15 03:30:00,
2014-01-14 21:33:00,34.6,14.4,30.65,NW,318,1.0,2.0,43,0.00,,---,0.00,VWS V14.01,2014-01-15 03:33:00,
2014-01-14 21:38:00,34.3,14.1,30.65,NW,318,0.0,4.0,43,0.00,,---,0.00,VWS V14.01,2014-01-15 03:38:00,
2014-01-14 21:40:00,34.3,14.7,30.65,NW,318,1.0,4.0,44,0.00,,---,0.00,VWS V14.01,2014-01-15 03:40:00,
2014-01-14 21:43:00,34.1,14.5,30.65,NW,318,2.0,3.0,44,0.00,,---,0.00,VWS V14.01,2014-01-15 03:43:00,
2014-01-14 21:48:00,33.8,14.7,30.65,NW,318,2.0,4.0,45,0.00,,---,0.00,VWS V14.01,2014-01-15 03:48:00,
2014-01-14 21:50:00,33.8,14.7,30.65,NW,318,4.0,4.0,45,0.00,,---,0.00,VWS V14.01,2014-01-15 03:50:00,
2014-01-14 21:53:00,33.7,14.6,30.65,NW,318,0.0,4.0,45,0.00,,---,0.00,VWS V14.01,2014-01-15 03:53:00,
2014-01-14 21:58:00,33.5,14.4,30.65,NW,318,2.0,4.0,45,0.00,,---,0.00,VWS V14.01,2014-01-15 03:58:00,
2014-01-14 22:00:00,33.5,14.9,30.65,NW,318,0.0,4.0,46,0.00,,---,0.00,VWS V14.01,2014-01-15 04:00:00,
2014-01-14 22:03:00,33.5,14.9,30.65,NW,318,1.0,2.0,46,0.00,,---,0.00,VWS V14.01,2014-01-15 04:03:00,
2014-01-14 22:08:00,33.2,14.7,30.65,NW,318,2.0,4.0,46,0.00,,---,0.00,VWS V14.01,2014-01-15 04:08:00,
2014-01-14 22:10:00,33.2,14.7,30.65,NW,318,2.0,4.0,46,0.00,,---,0.00,VWS V14.01,2014-01-15 04:10:00,
2014-01-14 22:13:00,33.1,14.6,30.65,NW,318,1.0,3.0,46,0.00,,---,0.00,VWS V14.01,2014-01-15 04:13:00,
2014-01-14 22:18:00,32.8,14.3,30.66,NW,318,0.0,4.0,46,0.00,,---,0.00,VWS V14.01,2014-01-15 04:18:00,
2014-01-14 22:20:00,32.8,14.3,30.66,NW,318,2.0,4.0,46,0.00,,---,0.00,VWS V14.01,2014-01-15 04:20:00,
2014-01-14 22:23:00,32.7,14.2,30.66,NW,318,2.0,3.0,46,0.00,,---,0.00,VWS V14.01,2014-01-15 04:23:00,
2014-01-14 22:28:00,32.5,14.0,30.66,NW,318,2.0,3.0,46,0.00,,---,0.00,VWS V14.01,2014-01-15 04:28:00,
2014-01-14 22:30:00,32.4,13.9,30.66,NW,318,0.0,3.0,46,0.00,,---,0.00,VWS V14.01,2014-01-15 04:30:00,
2014-01-14 22:33:00,32.4,14.4,30.66,NW,318,1.0,3.0,47,0.00,,---,0.00,VWS V14.01,2014-01-15 04:33:00,
2014-01-14 22:38:00,32.1,14.2,30.66,NW,318,1.0,4.0,47,0.00,,---,0.00,VWS V14.01,2014-01-15 04:38:00,
2014-01-14 22:40:00,32.1,14.2,30.66,NW,318,2.0,4.0,47,0.00,,---,0.00,VWS V14.01,2014-01-15 04:40:00,
2014-01-14 22:43:00,31.9,14.0,30.66,NW,318,2.0,3.0,47,0.00,,---,0.00,VWS V14.01,2014-01-15 04:43:00,
2014-01-14 22:48:00,31.8,13.9,30.65,NW,318,0.0,3.0,47,0.00,,---,0.00,VWS V14.01,2014-01-15 04:48:00,
2014-01-14 22:50:00,31.8,13.9,30.65,NW,318,2.0,3.0,47,0.00,,---,0.00,VWS V14.01,2014-01-15 04:50:00,
2014-01-14 22:53:00,31.6,13.7,30.65,NW,318,0.0,3.0,47,0.00,,---,0.00,VWS V14.01,2014-01-15 04:53:00,
2014-01-14 22:58:00,31.5,14.1,30.65,NW,318,0.0,3.0,48,0.00,,---,0.00,VWS V14.01,2014-01-15 04:58:00,
2014-01-14 23:00:00,31.3,13.9,30.65,NW,318,2.0,4.0,48,0.00,,---,0.00,VWS V14.01,2014-01-15 05:00:00,
2014-01-14 23:01:00,31.3,13.9,30.65,NW,318,2.0,3.0,48,0.00,,---,0.00,VWS V14.01,2014-01-15 05:01:00,
2014-01-14 23:03:00,31.2,13.8,30.65,NW,318,3.0,4.0,48,0.00,,---,0.00,VWS V14.01,2014-01-15 05:03:00,
2014-01-14 23:08:00,30.9,13.5,30.65,NW,318,3.0,4.0,48,0.00,,---,0.00,VWS V14.01,2014-01-15 05:08:00,
2014-01-14 23:10:00,30.9,13.5,30.65,NW,318,2.0,4.0,48,0.00,,---,0.00,VWS V14.01,2014-01-15 05:10:00,
2014-01-14 23:13:00,30.7,13.4,30.65,NW,318,2.0,4.0,48,0.00,,---,0.00,VWS V14.01,2014-01-15 05:13:00,
2014-01-14 23:18:00,30.6,13.3,30.65,NW,318,3.0,5.0,48,0.00,,---,0.00,VWS V14.01,2014-01-15 05:18:00,
2014-01-14 23:20:00,30.6,13.3,30.65,NW,318,2.0,5.0,48,0.00,,---,0.00,VWS V14.01,2014-01-15 05:20:00,
2014-01-14 23:23:00,30.6,13.3,30.65,NW,318,1.0,3.0,48,0.00,,---,0.00,VWS V14.01,2014-01-15 05:23:00,
2014-01-14 23:28:00,30.6,13.3,30.65,NW,318,2.0,5.0,48,0.00,,---,0.00,VWS V14.01,2014-01-15 05:28:00,
2014-01-14 23:30:00,30.6,13.3,30.65,NW,318,1.0,5.0,48,0.00,,---,0.00,VWS V14.01,2014-01-15 05:30:00,
2014-01-14 23:33:00,30.6,13.3,30.65,NW,318,1.0,3.0,48,0.00,,---,0.00,VWS V14.01,2014-01-15 05:33:00,
2014-01-14 23:38:00,30.6,13.3,30.65,NW,318,1.0,3.0,48,0.00,,---,0.00,VWS V14.01,2014-01-15 05:38:00,
2014-01-14 23:40:00,30.4,13.5,30.65,NW,318,2.0,4.0,49,0.00,,---,0.00,VWS V14.01,2014-01-15 05:40:00,
2014-01-14 23:43:00,30.4,13.5,30.65,NW,317,2.0,5.0,49,0.00,,---,0.00,VWS V14.01,2014-01-15 05:43:00,
2014-01-14 23:48:00,30.3,13.9,30.65,NW,317,2.0,5.0,50,0.00,,---,0.00,VWS V14.01,2014-01-15 05:48:00,
2014-01-14 23:50:00,30.3,13.9,30.65,NW,317,1.0,5.0,50,0.00,,---,0.00,VWS V14.01,2014-01-15 05:50:00,
2014-01-14 23:53:00,30.3,13.4,30.65,NW,317,1.0,2.0,49,0.00,,---,0.00,VWS V14.01,2014-01-15 05:53:00,
2014-01-14 23:58:00,30.1,13.3,30.65,NW,317,0.0,3.0,49,0.00,,---,0.00,VWS V14.01,2014-01-15 05:58:00,